Time;durP1;ratioP1;P1;durP2;ratioP2;P2;SDS_P1;SDS_P2;PMS_P1;PMS_P2;Temp;Humidity;BMP_temperature;BMP_pressure;BME280_temperature;BME280_humidity;BME280_pressure;Samples;Min_cycle;Max_cycle;Signal;HPM_P1;HPM_P2
2023/01/17 00:02:08;;;;;;;1.60;1.50;;;;;;;7.63;100.00;93579.88;5028155;28;20101;-47
2023/01/17 00:10:12;;;;;;;1.17;1.08;;;;;;;7.90;100.00;93578.13;5024784;28;20068;-46
2023/01/17 00:12:46;;;;;;;1.15;1.05;;;;;;;7.68;100.00;93586.16;5026071;28;20073;-43
2023/01/17 00:15:15;;;;;;;4.20;2.92;;;;;;;7.84;100.00;93592.84;5023537;28;20454;-42
2023/01/17 00:17:45;;;;;;;1.40;1.30;;;;;;;7.82;100.00;93592.25;5028837;28;20064;-46
2023/01/17 00:26:05;;;;;;;1.45;1.35;;;;;;;7.51;100.00;93598.81;5024370;28;20069;-44
2023/01/17 01:35:54;;;;;;;1.20;1.20;;;;;;;7.30;100.00;93641.66;5025505;28;20081;-47
2023/01/17 01:38:25;;;;;;;;;;;;;;;7.09;100.00;93652.22;5021256;28;20536;-43
2023/01/17 01:40:55;;;;;;;2.03;1.58;;;;;;;7.11;100.00;93663.31;5022285;28;20564;-47
2023/01/17 01:43:41;;;;;;;1.40;1.30;;;;;;;7.23;100.00;93650.50;5023090;28;20042;-44
2023/01/17 01:46:11;;;;;;;1.40;1.30;;;;;;;6.85;100.00;93654.28;5033328;28;20073;-45
2023/01/17 01:48:41;;;;;;;1.70;1.60;;;;;;;7.22;100.00;93648.84;5032122;28;20085;-42
2023/01/17 01:51:13;;;;;;;1.50;1.40;;;;;;;7.06;100.00;93663.09;5026538;28;20073;-44
2023/01/17 01:53:45;;;;;;;1.30;1.20;;;;;;;7.20;100.00;93659.53;5032256;28;20102;-44
2023/01/17 01:56:15;;;;;;;1.33;1.23;;;;;;;6.98;100.00;93656.16;5033242;28;20091;-43
2023/01/17 01:58:46;;;;;;;1.80;1.70;;;;;;;7.37;100.00;93657.44;5023442;28;20088;-45
2023/01/17 02:01:15;;;;;;;1.40;1.30;;;;;;;7.30;100.00;93652.16;5030537;28;20081;-42
2023/01/17 02:03:44;;;;;;;1.73;1.23;;;;;;;7.22;100.00;93644.41;5029885;28;20077;-45
2023/01/17 02:06:26;;;;;;;1.58;1.30;;;;;;;6.90;100.00;93640.59;5034433;28;20111;-50
2023/01/17 02:08:56;;;;;;;1.92;1.50;;;;;;;7.07;100.00;93668.13;5024476;28;20096;-44
2023/01/17 02:11:24;;;;;;;1.20;1.20;;;;;;;6.94;100.00;93672.47;5029253;28;20085;-43
2023/01/17 02:13:52;;;;;;;2.08;1.60;;;;;;;6.78;100.00;93663.06;5030698;28;20525;-45
2023/01/17 02:16:31;;;;;;;1.73;1.60;;;;;;;6.76;100.00;93684.22;5029836;28;20488;-44
2023/01/17 02:19:09;;;;;;;2.05;1.40;;;;;;;7.21;100.00;93673.44;5030343;28;20085;-49
2023/01/17 02:21:39;;;;;;;1.30;1.20;;;;;;;7.07;100.00;93667.31;5030317;28;20080;-48
2023/01/17 02:24:22;;;;;;;;;;;;;;;7.09;100.00;93667.94;5031471;28;20081;-50
2023/01/17 02:26:57;;;;;;;1.38;1.30;;;;;;;7.15;100.00;93675.03;5020325;28;19960;-47
2023/01/17 02:30:03;;;;;;;1.52;1.20;;;;;;;7.03;100.00;93673.94;5029455;28;20478;-45
2023/01/17 02:32:45;;;;;;;1.35;1.30;;;;;;;7.11;100.00;93676.41;5027612;28;20605;-48
2023/01/17 02:35:20;;;;;;;1.40;1.30;;;;;;;7.31;97.33;93679.97;5025441;28;20073;-47
2023/01/17 02:37:57;;;;;;;1.83;1.73;;;;;;;7.28;95.96;93680.34;5021949;28;20088;-47
2023/01/17 02:40:28;;;;;;;1.20;1.10;;;;;;;7.59;94.48;93681.72;5025317;28;20077;-44
2023/01/17 02:42:59;;;;;;;1.45;1.35;;;;;;;7.46;94.22;93682.47;5026648;28;20089;-45
2023/01/17 02:45:28;;;;;;;2.08;1.27;;;;;;;6.92;97.37;93682.31;5031612;28;20092;-47
2023/01/17 02:47:57;;;;;;;1.65;1.30;;;;;;;7.07;96.76;93689.09;5028385;28;20469;-49
2023/01/17 02:50:31;;;;;;;3.80;1.50;;;;;;;7.45;92.51;93685.28;5026223;28;20084;-47
2023/01/17 02:53:12;;;;;;;1.85;1.40;;;;;;;7.07;93.79;93689.09;5026781;28;20495;-51
2023/01/17 02:55:50;;;;;;;2.25;1.48;;;;;;;6.97;97.80;93682.56;5026814;28;20533;-47
2023/01/17 02:58:26;;;;;;;2.97;1.50;;;;;;;7.17;97.56;93688.75;5021622;28;20073;-45
2023/01/17 03:01:01;;;;;;;1.95;1.40;;;;;;;7.50;94.26;93685.50;5027455;28;20100;-46
2023/01/17 03:03:33;;;;;;;1.58;1.48;;;;;;;7.11;94.71;93685.06;5029377;28;20100;-44
2023/01/17 03:06:10;;;;;;;2.97;1.42;;;;;;;7.48;92.96;93693.56;5031438;28;20088;-48
2023/01/17 03:08:40;;;;;;;1.92;1.50;;;;;;;7.34;95.52;93687.44;5025549;28;20077;-45
2023/01/17 03:11:09;;;;;;;1.95;1.67;;;;;;;7.93;86.13;93672.97;5027265;28;20077;-43
2023/01/17 03:13:37;;;;;;;1.60;1.50;;;;;;;7.48;91.41;93684.91;5028087;28;20087;-48
2023/01/17 03:16:08;;;;;;;1.40;1.30;;;;;;;7.57;92.23;93686.34;5024173;28;20077;-46
2023/01/17 03:18:41;;;;;;;2.20;1.60;;;;;;;7.38;92.61;93680.81;5022339;28;20156;-48
2023/01/17 03:21:09;;;;;;;2.10;1.50;;;;;;;7.06;100.00;93682.25;5023900;28;20089;-44
2023/01/17 03:23:37;;;;;;;3.80;1.40;;;;;;;7.09;100.00;93696.78;5029159;28;20080;-43
2023/01/17 03:26:06;;;;;;;1.33;1.20;;;;;;;7.39;100.00;93684.22;5021867;28;20497;-45
2023/01/17 03:28:34;;;;;;;2.40;1.40;;;;;;;7.52;97.76;93686.94;5027955;28;20552;-42
2023/01/17 03:31:02;;;;;;;1.48;1.42;;;;;;;7.41;100.00;93686.69;5022351;28;20081;-45
2023/01/17 03:33:31;;;;;;;2.17;1.52;;;;;;;6.79;100.00;93696.13;5030426;28;20537;-49
2023/01/17 03:36:00;;;;;;;2.28;1.60;;;;;;;7.40;100.00;93693.75;5021717;28;20466;-47
2023/01/17 03:38:29;;;;;;;1.77;1.40;;;;;;;7.41;98.86;93697.97;5023991;28;20089;-44
2023/01/17 03:40:57;;;;;;;2.35;1.63;;;;;;;7.16;100.00;93699.41;5026944;28;20085;-43
2023/01/17 03:43:26;;;;;;;2.72;1.67;;;;;;;7.09;100.00;93707.25;5027576;28;20555;-44
2023/01/17 03:46:02;;;;;;;2.03;1.80;;;;;;;7.05;100.00;93701.56;5024485;28;20168;-42
2023/01/17 03:48:30;;;;;;;1.98;1.63;;;;;;;7.58;100.00;93701.09;5025358;28;20644;-42
2023/01/17 03:51:00;;;;;;;1.73;1.30;;;;;;;7.05;100.00;93706.00;5022830;28;20081;-44
2023/01/17 03:53:28;;;;;;;1.85;1.63;;;;;;;6.66;100.00;93707.31;5028880;28;20080;-44
2023/01/17 03:55:57;;;;;;;1.75;1.30;;;;;;;6.77;100.00;93704.16;5026531;28;20095;-46
2023/01/17 03:58:25;;;;;;;1.27;1.20;;;;;;;6.77;100.00;93704.16;5025522;28;20478;-45
2023/01/17 04:00:53;;;;;;;1.50;1.40;;;;;;;6.92;100.00;93703.25;5021624;28;20081;-42
2023/01/17 04:03:22;;;;;;;2.45;1.50;;;;;;;7.10;100.00;93704.44;5027710;28;21822;-41
2023/01/17 04:05:50;;;;;;;2.30;1.33;;;;;;;6.89;100.00;93700.03;5026368;28;20081;-45
2023/01/17 04:08:19;;;;;;;1.45;1.33;;;;;;;7.28;100.00;93711.00;5026348;28;20069;-46
2023/01/17 04:10:48;;;;;;;1.47;1.40;;;;;;;7.27;100.00;93704.13;5022723;28;20136;-43
2023/01/17 04:13:16;;;;;;;1.33;1.30;;;;;;;7.64;100.00;93707.34;5026394;28;20079;-45
2023/01/17 04:15:47;;;;;;;3.58;1.40;;;;;;;7.56;98.31;93706.50;5024620;28;20466;-50
2023/01/17 04:18:16;;;;;;;1.60;1.48;;;;;;;6.80;100.00;93703.00;5034918;28;20083;-48
2023/01/17 04:20:45;;;;;;;2.03;1.35;;;;;;;7.48;97.06;93705.88;5026488;28;20536;-46
2023/01/17 04:23:13;;;;;;;1.60;1.30;;;;;;;7.41;100.00;93705.03;5024998;28;20111;-46
2023/01/17 04:25:43;;;;;;;1.75;1.40;;;;;;;6.94;100.00;93709.13;5030010;28;20068;-45
2023/01/17 04:28:11;;;;;;;2.00;1.63;;;;;;;7.17;100.00;93706.28;5028653;28;20493;-44
2023/01/17 04:30:40;;;;;;;2.00;1.20;;;;;;;7.38;100.00;93701.78;5023879;28;20664;-52
2023/01/17 04:33:08;;;;;;;0.98;0.93;;;;;;;7.12;100.00;93697.19;5030921;28;20065;-45
2023/01/17 04:35:36;;;;;;;2.22;1.30;;;;;;;6.91;100.00;93697.22;5026198;28;20069;-45
2023/01/17 04:38:05;;;;;;;1.33;1.23;;;;;;;6.95;100.00;93698.50;5023398;28;20064;-44
2023/01/17 04:40:33;;;;;;;1.42;1.33;;;;;;;7.24;100.00;93696.66;5022502;28;20083;-48
2023/01/17 04:43:03;;;;;;;1.90;1.25;;;;;;;6.62;100.00;93698.22;5025604;28;20072;-44
2023/01/17 04:45:31;;;;;;;2.70;1.48;;;;;;;7.21;100.00;93702.28;5025181;28;20551;-46
2023/01/17 04:48:03;;;;;;;1.73;1.42;;;;;;;7.01;100.00;93712.63;5026323;28;20548;-45
2023/01/17 04:50:32;;;;;;;1.92;1.70;;;;;;;7.19;100.00;93699.88;5029860;28;20450;-47
2023/01/17 04:53:00;;;;;;;1.40;1.30;;;;;;;7.34;99.21;93697.94;5029053;28;20069;-48
2023/01/17 04:55:29;;;;;;;1.45;1.35;;;;;;;7.19;100.00;93701.66;5023673;28;20095;-48
2023/01/17 04:57:57;;;;;;;1.90;1.52;;;;;;;7.05;100.00;93703.38;5020874;28;20180;-47
2023/01/17 05:00:27;;;;;;;1.58;1.45;;;;;;;7.09;100.00;93713.28;5027042;28;20092;-42
2023/01/17 05:02:55;;;;;;;1.60;1.50;;;;;;;7.11;100.00;93705.22;5022934;28;20152;-46
2023/01/17 05:05:23;;;;;;;3.15;1.50;;;;;;;6.76;100.00;93707.78;5027628;28;20076;-48
2023/01/17 05:07:55;;;;;;;1.95;1.45;;;;;;;6.37;100.00;93703.03;5026828;28;20084;-46
2023/01/17 05:10:24;;;;;;;3.35;1.50;;;;;;;6.78;100.00;93707.59;5029349;28;20073;-44
2023/01/17 05:12:56;;;;;;;1.65;1.48;;;;;;;6.42;100.00;93713.72;5032955;28;20081;-48
2023/01/17 05:15:24;;;;;;;1.35;1.30;;;;;;;6.59;100.00;93711.69;5026878;28;20081;-48
2023/01/17 05:17:54;;;;;;;2.58;1.60;;;;;;;6.52;100.00;93714.22;5030526;28;20061;-48
2023/01/17 05:20:24;;;;;;;1.85;1.70;;;;;;;6.72;100.00;93713.59;5032909;28;20077;-44
2023/01/17 05:22:54;;;;;;;1.60;1.50;;;;;;;6.48;100.00;93717.41;5028808;28;20449;-45
2023/01/17 05:25:23;;;;;;;3.28;2.05;;;;;;;6.50;100.00;93718.84;5025993;28;20467;-46
2023/01/17 05:27:52;;;;;;;1.70;1.60;;;;;;;5.96;100.00;93724.53;5029072;28;20084;-50
2023/01/17 05:30:21;;;;;;;1.63;1.52;;;;;;;6.47;100.00;93721.00;5030323;28;20080;-44
2023/01/17 05:32:50;;;;;;;1.52;1.30;;;;;;;6.44;100.00;93730.06;5032274;28;20085;-46
2023/01/17 05:35:22;;;;;;;1.60;1.50;;;;;;;6.33;100.00;93734.00;5028225;28;20513;-43
2023/01/17 05:37:51;;;;;;;1.50;1.40;;;;;;;6.37;100.00;93735.25;5029532;28;20093;-44
2023/01/17 05:40:21;;;;;;;1.65;1.55;;;;;;;6.26;100.00;93740.13;5027454;28;20085;-45
2023/01/17 05:42:50;;;;;;;4.18;1.88;;;;;;;6.51;100.00;93743.22;5026850;28;20065;-50
2023/01/17 05:45:20;;;;;;;2.30;2.10;;;;;;;6.40;100.00;93740.09;5028184;28;20068;-51
2023/01/17 05:47:51;;;;;;;1.90;1.80;;;;;;;6.38;100.00;93739.47;5027082;28;20076;-47
2023/01/17 05:50:22;;;;;;;3.30;2.00;;;;;;;6.33;100.00;93747.06;5029689;28;20535;-47
2023/01/17 05:52:52;;;;;;;3.05;1.95;;;;;;;6.42;100.00;93751.19;5028878;28;20068;-46
2023/01/17 05:55:20;;;;;;;1.75;1.63;;;;;;;6.34;100.00;93761.78;5031602;28;20081;-43
2023/01/17 05:57:49;;;;;;;2.50;1.60;;;;;;;6.50;100.00;93759.91;5027225;28;20073;-45
2023/01/17 06:00:18;;;;;;;2.53;1.77;;;;;;;6.54;100.00;93761.19;5031484;28;20069;-46
2023/01/17 06:02:47;;;;;;;5.22;1.73;;;;;;;6.56;100.00;93762.59;5031192;28;20443;-47
2023/01/17 06:05:15;;;;;;;1.70;1.60;;;;;;;7.09;100.00;93759.66;5033989;28;20065;-46
2023/01/17 06:07:46;;;;;;;2.80;1.70;;;;;;;7.13;100.00;93766.13;5025800;28;20076;-43
2023/01/17 06:10:15;;;;;;;2.13;1.83;;;;;;;7.20;100.00;93768.81;5027043;28;20076;-43
2023/01/17 06:12:45;;;;;;;3.95;1.80;;;;;;;7.22;100.00;93764.16;5025647;28;20076;-47
2023/01/17 06:15:15;;;;;;;2.95;1.90;;;;;;;6.85;100.00;93766.91;5030102;28;20454;-43
2023/01/17 06:17:43;;;;;;;3.30;1.90;;;;;;;7.18;100.00;93770.78;5026822;28;20550;-46
2023/01/17 06:20:12;;;;;;;2.00;1.80;;;;;;;7.04;100.00;93767.25;5028657;28;20088;-47
2023/01/17 06:22:41;;;;;;;2.05;1.90;;;;;;;7.07;100.00;93762.44;5023525;28;20073;-47
2023/01/17 06:25:10;;;;;;;2.70;2.10;;;;;;;6.94;100.00;93766.75;5028666;28;20513;-47
2023/01/17 06:27:39;;;;;;;4.25;1.80;;;;;;;7.04;100.00;93765.44;5046721;28;20145;-49
2023/01/17 06:30:09;;;;;;;3.20;1.92;;;;;;;7.07;100.00;93759.03;5024862;28;20077;-43
2023/01/17 06:32:37;;;;;;;3.20;2.00;;;;;;;6.89;100.00;93765.53;5023853;28;20046;-47
2023/01/17 06:35:06;;;;;;;2.08;1.70;;;;;;;7.44;100.00;93750.03;5034429;28;20511;-46
2023/01/17 06:37:34;;;;;;;2.03;1.83;;;;;;;7.52;100.00;93762.97;5022655;28;20065;-49
2023/01/17 06:40:03;;;;;;;2.53;1.73;;;;;;;7.35;100.00;93759.81;5036491;28;20175;-46
2023/01/17 06:42:33;;;;;;;1.73;1.63;;;;;;;8.01;93.46;93745.47;5025457;28;21162;-48
2023/01/17 06:45:01;;;;;;;3.57;1.70;;;;;;;8.05;86.61;93751.94;5029757;28;20061;-46
2023/01/17 06:47:30;;;;;;;1.92;1.80;;;;;;;8.05;86.26;93750.13;5024841;28;20097;-44
2023/01/17 06:50:00;;;;;;;3.13;2.08;;;;;;;8.06;84.42;93756.19;5026356;28;20498;-46
2023/01/17 06:52:28;;;;;;;;;;;;;;;8.03;84.01;93752.13;5027690;28;20073;-51
2023/01/17 06:54:56;;;;;;;2.05;1.90;;;;;;;8.07;84.15;93747.31;5034369;28;19959;-45
2023/01/17 06:57:25;;;;;;;4.13;2.00;;;;;;;8.02;83.39;93742.66;5028798;28;20069;-46
2023/01/17 06:59:54;;;;;;;4.07;1.92;;;;;;;7.92;84.10;93738.78;5024472;28;20093;-45
2023/01/17 07:02:23;;;;;;;2.97;1.90;;;;;;;8.00;83.35;93749.09;5026977;28;20068;-43
2023/01/17 07:04:51;;;;;;;4.00;2.35;;;;;;;7.92;84.14;93747.44;5025110;28;20075;-44
2023/01/17 07:07:20;;;;;;;6.07;2.30;;;;;;;7.88;85.98;93748.84;5031505;28;20194;-45
2023/01/17 07:09:48;;;;;;;1.85;1.60;;;;;;;7.93;83.56;93746.44;5026111;28;20081;-42
2023/01/17 07:12:17;;;;;;;3.13;1.90;;;;;;;7.96;83.07;93747.88;5024540;28;20084;-45
2023/01/17 07:14:45;;;;;;;2.05;1.92;;;;;;;7.96;83.28;93748.69;5023395;28;20073;-45
2023/01/17 07:17:15;;;;;;;2.15;1.90;;;;;;;8.02;83.08;93740.03;5028273;28;20520;-42
2023/01/17 07:19:43;;;;;;;2.20;2.00;;;;;;;8.08;82.86;93743.66;5029463;28;20471;-45
2023/01/17 07:22:12;;;;;;;2.47;2.00;;;;;;;8.11;82.55;93745.91;5022342;28;20065;-43
2023/01/17 07:24:40;;;;;;;2.72;2.00;;;;;;;8.12;81.30;93744.91;5024923;28;20543;-45
2023/01/17 07:27:08;;;;;;;2.00;1.80;;;;;;;8.07;80.25;93750.72;5025559;28;20087;-47
2023/01/17 07:29:37;;;;;;;2.83;2.00;;;;;;;8.05;81.00;93744.91;5027435;28;20140;-48
2023/01/17 07:32:07;;;;;;;4.60;2.10;;;;;;;8.15;80.43;93735.81;5026949;28;20069;-45
2023/01/17 07:34:37;;;;;;;2.03;1.92;;;;;;;8.18;78.45;93732.81;5029316;28;20084;-44
2023/01/17 07:37:06;;;;;;;3.33;2.10;;;;;;;8.18;79.51;93738.06;5027817;28;20717;-48
2023/01/17 07:39:36;;;;;;;2.42;1.90;;;;;;;8.24;79.55;93737.28;5027876;28;20545;-44
2023/01/17 07:42:04;;;;;;;2.20;2.00;;;;;;;8.36;78.20;93735.69;5026751;28;20093;-45
2023/01/17 07:44:32;;;;;;;2.78;2.58;;;;;;;8.36;78.03;93733.06;5026935;28;20085;-47
2023/01/17 07:47:01;;;;;;;4.90;2.20;;;;;;;8.33;78.87;93739.53;5027393;28;20963;-47
2023/01/17 07:49:29;;;;;;;5.00;2.03;;;;;;;8.35;78.46;93733.25;5027525;28;20088;-48
2023/01/17 07:51:59;;;;;;;5.75;2.28;;;;;;;8.43;79.29;93739.19;5026445;28;20068;-45
2023/01/17 07:54:27;;;;;;;4.47;1.90;;;;;;;8.45;78.91;93731.91;5027657;28;21608;-46
2023/01/17 07:56:56;;;;;;;3.40;2.22;;;;;;;8.19;83.52;93737.03;5031556;28;20466;-48
2023/01/17 07:59:24;;;;;;;2.50;2.30;;;;;;;7.83;94.02;93741.53;5026876;28;20081;-45
2023/01/17 08:01:52;;;;;;;3.88;2.38;;;;;;;7.98;95.60;93735.34;5024329;28;20133;-47
2023/01/17 08:04:21;;;;;;;2.38;2.17;;;;;;;8.29;90.98;93737.47;5026157;28;20068;-42
2023/01/17 08:06:50;;;;;;;2.60;2.00;;;;;;;8.11;87.65;93739.84;5026318;28;20081;-46
2023/01/17 08:09:20;;;;;;;2.63;2.03;;;;;;;8.27;85.39;93723.75;5024351;28;20087;-42
2023/01/17 08:11:48;;;;;;;2.80;2.20;;;;;;;8.44;83.11;93713.75;5025742;28;20085;-47
2023/01/17 08:14:17;;;;;;;3.30;1.90;;;;;;;8.52;79.27;93706.47;5027080;28;20099;-48
2023/01/17 08:16:45;;;;;;;4.13;2.10;;;;;;;8.62;79.90;93706.09;5026719;28;20092;-46
2023/01/17 08:19:15;;;;;;;3.00;2.10;;;;;;;8.60;77.64;93694.16;5022305;28;20064;-45
2023/01/17 08:21:44;;;;;;;3.42;2.30;;;;;;;8.16;87.24;93695.47;5023573;28;20069;-45
2023/01/17 08:24:13;;;;;;;2.95;2.20;;;;;;;8.32;86.75;93701.13;5025809;28;20085;-46
2023/01/17 08:26:42;;;;;;;2.88;2.40;;;;;;;8.94;79.73;93693.97;5026021;28;20084;-42
2023/01/17 08:29:11;;;;;;;2.67;2.30;;;;;;;9.06;76.06;93693.38;5026360;28;20085;-43
2023/01/17 08:31:39;;;;;;;3.00;1.90;;;;;;;9.35;73.53;93687.66;5026535;28;20072;-45
2023/01/17 08:34:07;;;;;;;3.35;2.10;;;;;;;9.24;71.98;93685.66;5028346;28;20643;-46
2023/01/17 08:36:36;;;;;;;5.90;1.90;;;;;;;9.15;70.23;93685.06;5022581;28;20100;-45
2023/01/17 08:39:04;;;;;;;4.00;2.10;;;;;;;9.59;68.27;93672.22;5026300;28;20100;-48
2023/01/17 08:41:32;;;;;;;3.40;1.90;;;;;;;9.28;69.41;93689.50;5022815;28;20171;-46
2023/01/17 08:44:02;;;;;;;5.47;1.90;;;;;;;9.71;67.10;93689.00;5022868;28;20093;-48
2023/01/17 08:46:30;;;;;;;3.40;2.30;;;;;;;9.37;69.34;93696.16;5024532;28;20085;-49
2023/01/17 08:49:01;;;;;;;4.38;2.20;;;;;;;8.35;89.64;93701.75;5024740;28;20096;-44
2023/01/17 08:51:31;;;;;;;2.37;2.07;;;;;;;9.22;81.36;93685.03;5023825;28;20552;-42
2023/01/17 08:53:59;;;;;;;4.38;2.17;;;;;;;9.15;79.69;93681.63;5024461;28;20560;-43
2023/01/17 08:56:28;;;;;;;3.92;2.50;;;;;;;8.71;84.39;93697.00;5026549;28;20076;-42
2023/01/17 08:58:56;;;;;;;3.97;2.10;;;;;;;8.71;89.85;93699.63;5029983;28;20480;-42
2023/01/17 09:01:26;;;;;;;3.17;2.10;;;;;;;8.50;91.38;93694.56;5024192;28;20108;-42
2023/01/17 09:03:54;;;;;;;2.95;2.13;;;;;;;9.20;79.63;93692.34;5024190;28;20081;-46
2023/01/17 09:06:22;;;;;;;3.47;2.20;;;;;;;9.88;70.16;93682.25;5027777;28;20088;-45
2023/01/17 09:08:53;;;;;;;3.78;1.85;;;;;;;9.51;68.86;93686.41;5021758;28;20084;-42
2023/01/17 09:11:21;;;;;;;3.63;2.00;;;;;;;9.99;67.05;93688.69;5024237;28;20101;-42
2023/01/17 09:13:50;;;;;;;4.18;2.13;;;;;;;10.21;63.93;93689.19;5025675;28;20077;-43
2023/01/17 09:16:18;;;;;;;2.47;1.92;;;;;;;10.53;62.23;93687.44;5024968;28;20085;-48
2023/01/17 09:18:48;;;;;;;3.33;2.00;;;;;;;10.36;62.24;93684.50;5023566;28;20084;-46
2023/01/17 09:21:17;;;;;;;2.80;2.00;;;;;;;10.41;61.70;93687.28;5025242;28;20057;-45
2023/01/17 09:23:46;;;;;;;2.92;1.80;;;;;;;9.56;65.40;93691.06;5021623;28;20530;-41
2023/01/17 09:26:18;;;;;;;3.47;1.80;;;;;;;9.64;67.16;93678.50;5024904;28;20088;-45
2023/01/17 09:28:46;;;;;;;4.03;1.63;;;;;;;9.99;66.57;93688.69;5024893;28;20073;-44
2023/01/17 09:31:15;;;;;;;3.33;1.70;;;;;;;10.15;64.43;93692.66;5023378;28;20107;-42
2023/01/17 09:33:44;;;;;;;3.08;1.60;;;;;;;10.67;62.07;93694.22;5024275;28;20081;-44
2023/01/17 09:36:14;;;;;;;2.65;1.67;;;;;;;9.89;67.21;93704.91;5023512;28;20092;-44
2023/01/17 09:38:43;;;;;;;5.28;1.80;;;;;;;10.18;65.71;93702.75;5023053;28;20489;-44
2023/01/17 09:41:21;;;;;;;2.97;1.40;;;;;;;9.47;72.26;93701.81;5021101;28;20085;-46
2023/01/17 09:43:52;;;;;;;3.42;1.73;;;;;;;9.39;71.16;93699.38;5018331;28;20473;-44
2023/01/17 09:46:23;;;;;;;2.53;1.40;;;;;;;9.14;74.46;93701.84;5023943;28;20064;-48
2023/01/17 09:48:56;;;;;;;1.98;1.38;;;;;;;9.00;77.31;93695.78;5018410;28;20069;-47
2023/01/17 09:51:26;;;;;;;2.63;1.35;;;;;;;9.05;78.17;93697.81;5027414;28;20064;-44
2023/01/17 09:53:54;;;;;;;2.40;1.53;;;;;;;8.98;73.75;93694.34;5023372;28;20376;-42
2023/01/17 09:56:28;;;;;;;3.70;1.40;;;;;;;8.85;76.75;93695.19;5022200;28;20088;-47
2023/01/17 09:59:09;;;;;;;2.28;1.40;;;;;;;9.79;71.90;93670.34;5018560;28;20065;-43
2023/01/17 10:01:40;;;;;;;;;;;;;;;10.13;64.89;93657.84;5038141;28;20157;-45
2023/01/17 10:04:20;;;;;;;4.47;1.83;;;;;;;9.04;67.31;93654.13;5032690;28;19956;-46
2023/01/17 10:07:00;;;;;;;3.70;2.17;;;;;;;9.89;65.37;93630.44;5026876;28;20084;-44
2023/01/17 10:09:34;;;;;;;;;;;;;;;9.56;64.38;93627.91;5028344;28;20076;-47
2023/01/17 10:12:13;;;;;;;5.63;1.90;;;;;;;9.37;64.08;93621.72;5024322;28;19975;-47
2023/01/17 10:14:55;;;;;;;5.32;1.60;;;;;;;10.15;60.06;93603.97;5020549;28;20068;-45
2023/01/17 10:17:35;;;;;;;3.55;1.52;;;;;;;9.40;58.56;93601.06;5026643;28;20049;-46
2023/01/17 10:20:15;;;;;;;1.77;1.67;;;;;;;9.75;56.78;93601.53;5026245;28;20072;-44
2023/01/17 10:23:00;;;;;;;1.77;1.60;;;;;;;10.19;56.37;93593.81;5026703;28;20080;-51
2023/01/17 10:25:35;;;;;;;5.47;1.67;;;;;;;9.85;59.24;93585.31;5027055;28;20781;-44
2023/01/17 10:28:12;;;;;;;6.18;2.10;;;;;;;9.50;57.58;93588.31;5023932;28;20093;-45
2023/01/17 10:30:47;;;;;;;2.28;1.50;;;;;;;9.60;54.02;93573.88;5026883;28;20077;-44
2023/01/17 10:33:18;;;;;;;2.08;1.38;;;;;;;10.38;50.56;93576.28;5021708;28;20069;-45
2023/01/17 10:35:55;;;;;;;1.58;1.20;;;;;;;10.94;48.11;93583.28;5026813;28;20110;-47
2023/01/17 10:38:30;;;;;;;2.67;1.70;;;;;;;11.10;48.76;93587.19;5027366;28;20077;-49
2023/01/17 10:41:06;;;;;;;5.07;1.45;;;;;;;11.16;49.35;93573.94;5031328;28;20081;-44
2023/01/17 10:43:43;;;;;;;4.07;1.50;;;;;;;11.09;48.46;93581.13;5024877;28;20552;-42
2023/01/17 10:46:15;;;;;;;1.90;1.48;;;;;;;10.65;47.92;93588.22;5029126;28;20081;-43
2023/01/17 10:48:45;;;;;;;4.30;1.50;;;;;;;9.92;48.52;93585.25;5024517;28;20085;-48
2023/01/17 10:51:30;;;;;;;3.55;1.50;;;;;;;10.22;47.79;93583.66;5027353;28;20096;-45
2023/01/17 10:54:14;;;;;;;1.38;1.27;;;;;;;9.80;49.47;93582.47;5025606;28;20077;-43
2023/01/17 10:56:42;;;;;;;2.65;1.30;;;;;;;9.41;49.25;93589.53;5026959;28;20085;-45
2023/01/17 10:59:22;;;;;;;1.30;1.20;;;;;;;10.76;47.83;93570.09;5027915;28;20077;-48
2023/01/17 11:01:50;;;;;;;1.80;1.40;;;;;;;11.36;46.60;93575.56;5021509;28;20106;-42
2023/01/17 11:04:20;;;;;;;2.35;1.27;;;;;;;10.59;48.47;93578.53;5026331;28;20989;-46
2023/01/17 11:07:10;;;;;;;2.40;1.40;;;;;;;11.00;46.87;93563.16;5030495;28;20085;-48
2023/01/17 11:09:41;;;;;;;2.63;1.27;;;;;;;9.85;49.40;93558.97;5027944;28;20521;-45
2023/01/17 11:12:28;;;;;;;1.30;1.17;;;;;;;10.81;47.41;93549.97;5022199;28;20143;-46
2023/01/17 11:15:20;;;;;;;2.88;1.50;;;;;;;10.42;47.81;93543.22;5027208;28;20080;-50
2023/01/17 11:17:52;;;;;;;1.50;1.40;;;;;;;10.57;47.71;93538.44;5023953;28;20081;-48
2023/01/17 11:20:23;;;;;;;2.03;1.58;;;;;;;10.28;47.96;93526.72;5024206;28;20533;-47
2023/01/17 11:23:06;;;;;;;2.00;1.30;;;;;;;10.20;48.58;93527.75;5024196;28;20088;-48
2023/01/17 11:25:35;;;;;;;3.58;2.00;;;;;;;10.23;48.33;93516.00;5030038;28;20085;-45
2023/01/17 11:28:07;;;;;;;2.33;1.63;;;;;;;10.29;49.47;93506.44;5028354;28;20462;-45
2023/01/17 11:30:35;;;;;;;1.77;1.60;;;;;;;9.91;49.70;93502.03;5026917;28;20085;-46
2023/01/17 11:33:07;;;;;;;2.05;1.50;;;;;;;9.73;49.33;93508.84;5024451;28;20112;-50
2023/01/17 11:35:36;;;;;;;1.52;1.40;;;;;;;9.38;48.66;93497.91;5024838;28;20590;-47
2023/01/17 11:38:07;;;;;;;1.60;1.50;;;;;;;9.60;49.04;93494.97;5028844;28;20091;-44
2023/01/17 11:40:38;;;;;;;2.10;1.63;;;;;;;10.16;48.19;93491.56;5025273;28;20085;-48
2023/01/17 11:43:22;;;;;;;3.53;1.50;;;;;;;9.64;48.71;93490.91;5023275;28;20113;-46
2023/01/17 11:46:09;;;;;;;3.97;1.80;;;;;;;10.80;48.22;93487.72;5027210;28;20087;-44
2023/01/17 11:48:38;;;;;;;1.50;1.40;;;;;;;10.14;48.87;93488.31;5024753;28;20076;-43
2023/01/17 11:51:18;;;;;;;1.85;1.48;;;;;;;10.18;49.16;93487.66;5030002;28;20093;-45
2023/01/17 11:53:47;;;;;;;3.38;1.60;;;;;;;10.85;48.56;93479.19;5029096;28;20069;-49
2023/01/17 11:56:26;;;;;;;1.98;1.70;;;;;;;10.75;48.28;93476.25;5027711;28;20077;-45
2023/01/17 11:59:24;;;;;;;2.53;1.50;;;;;;;10.25;47.88;93490.25;5030219;28;20080;-45
2023/01/17 12:02:24;;;;;;;1.60;1.30;;;;;;;10.49;48.33;93474.66;5028543;28;20092;-48
2023/01/17 12:04:56;;;;;;;2.67;1.55;;;;;;;10.98;46.56;93467.66;5027701;28;20073;-44
2023/01/17 12:07:29;;;;;;;2.03;1.30;;;;;;;9.84;48.94;93470.53;5024071;28;20099;-44
2023/01/17 12:10:04;;;;;;;2.17;1.35;;;;;;;11.03;47.34;93460.72;5025805;28;20092;-48
2023/01/17 12:15:41;;;;;;;1.98;1.60;;;;;;;10.66;47.45;93441.47;5025011;28;20077;-46
2023/01/17 12:18:30;;;;;;;3.53;1.42;;;;;;;10.25;48.88;93452.56;5023188;28;20650;-48
2023/01/17 12:21:12;;;;;;;1.40;1.30;;;;;;;10.90;47.99;93440.56;5020108;28;20470;-47
2023/01/17 12:23:51;;;;;;;1.60;1.40;;;;;;;10.74;49.12;93433.28;5025101;28;20080;-42
2023/01/17 12:26:30;;;;;;;1.98;1.60;;;;;;;10.29;49.81;93436.19;5018453;28;20100;-47
2023/01/17 12:29:34;;;;;;;2.45;1.48;;;;;;;10.30;50.14;93434.34;5028062;28;20485;-51
2023/01/17 12:32:17;;;;;;;2.33;1.48;;;;;;;9.99;50.82;93421.00;5017082;28;20085;-43
2023/01/17 12:34:52;;;;;;;3.60;1.55;;;;;;;9.97;51.87;93420.41;5023072;28;20324;-43
2023/01/17 12:37:24;;;;;;;1.50;1.40;;;;;;;9.57;51.51;93416.50;5027689;28;20100;-44
2023/01/17 12:39:56;;;;;;;3.65;1.50;;;;;;;10.46;50.96;93396.91;5023069;28;20095;-46
2023/01/17 12:42:28;;;;;;;2.83;1.48;;;;;;;10.27;49.96;93403.19;5022399;28;20080;-46
2023/01/17 12:45:02;;;;;;;2.17;1.40;;;;;;;10.39;50.64;93393.50;5026645;28;20080;-43
2023/01/17 12:47:32;;;;;;;1.67;1.58;;;;;;;10.68;50.67;93378.81;5026109;28;20076;-46
2023/01/17 12:50:05;;;;;;;1.98;1.50;;;;;;;10.45;50.95;93376.84;5031723;28;20138;-47
2023/01/17 12:52:46;;;;;;;2.35;1.52;;;;;;;10.35;51.18;93364.19;5023325;28;20522;-45
2023/01/17 12:55:18;;;;;;;2.00;1.58;;;;;;;10.34;51.15;93364.41;5031087;28;20080;-47
2023/01/17 12:57:51;;;;;;;3.08;1.60;;;;;;;10.75;50.48;93349.75;5023856;28;20081;-46
2023/01/17 13:00:24;;;;;;;1.50;1.40;;;;;;;10.83;50.47;93344.16;5020152;28;20080;-45
2023/01/17 13:02:57;;;;;;;2.35;1.50;;;;;;;10.56;51.42;93343.69;5023895;28;20072;-48
2023/01/17 13:05:27;;;;;;;3.95;1.60;;;;;;;10.06;51.56;93338.56;5023310;28;20079;-46
2023/01/17 13:08:00;;;;;;;2.28;1.67;;;;;;;10.38;52.46;93334.78;5023808;28;20088;-46
2023/01/17 13:10:34;;;;;;;1.95;1.70;;;;;;;10.77;51.93;93329.22;5025209;28;20623;-46
2023/01/17 13:13:09;;;;;;;1.50;1.33;;;;;;;10.34;52.81;93330.16;5024904;28;20092;-46
2023/01/17 13:15:40;;;;;;;1.85;1.73;;;;;;;9.57;53.77;93334.97;5028268;28;20475;-43
2023/01/17 13:18:13;;;;;;;1.65;1.50;;;;;;;10.40;52.86;93324.84;5020152;28;21922;-48
2023/01/17 13:21:04;;;;;;;1.92;1.42;;;;;;;10.07;53.23;93333.06;5018922;28;20081;-44
2023/01/17 13:23:47;;;;;;;1.88;1.50;;;;;;;9.99;53.65;93326.25;5022611;28;20533;-50